Time;durP1;ratioP1;P1;durP2;ratioP2;P2;SDS_P1;SDS_P2;PMS_P1;PMS_P2;Temp;Humidity;BMP_temperature;BMP_pressure;BME280_temperature;BME280_humidity;BME280_pressure;Samples;Min_cycle;Max_cycle;Signal;HPM_P1;HPM_P2
2024/01/17 00:01:01;;;;;;;15.25;10.07;;;;;;;-1.73;100.00;61819.88;5105691;28;20466;-78
2024/01/17 00:03:30;;;;;;;17.33;9.63;;;;;;;-1.74;100.00;61818.84;5109441;28;20222;-77
2024/01/17 00:05:57;;;;;;;17.55;9.73;;;;;;;-1.75;100.00;61818.34;5105518;28;20222;-79
2024/01/17 00:08:24;;;;;;;19.13;10.93;;;;;;;-1.66;100.00;61827.03;5108069;28;20249;-78
2024/01/17 00:10:51;;;;;;;17.67;10.43;;;;;;;-1.71;100.00;61822.41;5104021;28;20223;-78
2024/01/17 00:13:17;;;;;;;16.55;9.30;;;;;;;-1.75;100.00;61823.31;5108230;28;20227;-78
2024/01/17 00:15:44;;;;;;;20.85;10.27;;;;;;;-1.93;100.00;61809.91;5094176;28;20231;-78
2024/01/17 00:18:11;;;;;;;18.55;10.43;;;;;;;-1.76;100.00;61821.78;5106380;28;20192;-77
2024/01/17 00:20:40;;;;;;;17.88;9.95;;;;;;;-1.63;100.00;61835.09;5107207;28;20220;-77
2024/01/17 00:23:06;;;;;;;17.80;10.32;;;;;;;-1.62;100.00;61833.59;5110420;28;20196;-79
2024/01/17 00:25:34;;;;;;;17.77;10.43;;;;;;;-1.58;100.00;61832.72;5107322;28;20258;-78
2024/01/17 00:28:00;;;;;;;18.67;11.43;;;;;;;-1.55;100.00;61838.28;5105450;28;20227;-77
2024/01/17 00:30:27;;;;;;;17.30;9.82;;;;;;;-1.53;100.00;61847.81;5103915;28;20453;-77
2024/01/17 00:32:56;;;;;;;20.10;10.55;;;;;;;-1.54;100.00;61836.81;5105721;28;20202;-81
2024/01/17 00:35:25;;;;;;;12.52;9.23;;;;;;;-1.65;100.00;61833.56;5106623;28;20219;-78
2024/01/17 00:37:54;;;;;;;20.30;11.45;;;;;;;-1.62;100.00;61836.09;5103023;28;20204;-78
2024/01/17 00:40:21;;;;;;;14.52;9.55;;;;;;;-1.68;100.00;61828.00;5104017;28;20304;-78
2024/01/17 00:42:48;;;;;;;15.98;9.43;;;;;;;-1.63;100.00;61830.63;5102503;28;20223;-78
2024/01/17 00:45:16;;;;;;;14.93;9.95;;;;;;;-1.64;100.00;61829.09;5101967;28;20281;-78
2024/01/17 00:47:42;;;;;;;17.65;10.05;;;;;;;-1.65;100.00;61831.06;5097410;28;20206;-78
2024/01/17 00:50:10;;;;;;;14.18;9.38;;;;;;;-1.64;100.00;61826.59;5109425;28;20216;-77
2024/01/17 00:52:37;;;;;;;9.43;7.00;;;;;;;-1.63;100.00;61830.63;5112069;28;20200;-78
2024/01/17 00:55:07;;;;;;;8.38;6.28;;;;;;;-1.67;100.00;61826.50;5103467;28;20222;-77
2024/01/17 00:57:34;;;;;;;10.80;6.75;;;;;;;-1.71;100.00;61821.91;5098406;28;20225;-77
2024/01/17 01:00:01;;;;;;;13.82;8.48;;;;;;;-1.75;100.00;61823.31;5103483;28;20235;-77
2024/01/17 01:02:28;;;;;;;6.95;6.25;;;;;;;-1.75;100.00;61820.31;5105398;28;20208;-77
2024/01/17 01:04:55;;;;;;;8.38;6.63;;;;;;;-1.74;100.00;61823.81;5104181;28;20216;-77
2024/01/17 01:07:22;;;;;;;4.57;4.18;;;;;;;-1.73;100.00;61827.34;5105068;28;20204;-77
2024/01/17 01:09:49;;;;;;;4.68;4.20;;;;;;;-1.75;100.00;61825.31;5107761;28;20226;-79
2024/01/17 01:12:17;;;;;;;5.72;4.70;;;;;;;-1.84;100.00;61808.59;5108261;28;20233;-77
2024/01/17 01:14:44;;;;;;;6.55;5.55;;;;;;;-1.76;100.00;61819.78;5098705;28;20399;-78
2024/01/17 01:17:11;;;;;;;5.85;4.00;;;;;;;-1.69;100.00;61828.97;5107937;28;20252;-77
2024/01/17 01:19:38;;;;;;;2.78;2.40;;;;;;;-1.73;100.00;61822.88;5115146;28;20415;-77
2024/01/17 01:22:05;;;;;;;2.55;2.35;;;;;;;-1.72;100.00;61820.88;5105454;28;20212;-78
2024/01/17 01:24:32;;;;;;;3.78;3.20;;;;;;;-1.70;100.00;61825.94;5098332;28;20242;-77
2024/01/17 01:26:59;;;;;;;2.15;2.05;;;;;;;-1.75;100.00;61817.81;5105950;28;20262;-77
2024/01/17 01:29:27;;;;;;;2.55;2.35;;;;;;;-1.76;100.00;61817.31;5106218;28;20232;-76
2024/01/17 01:31:54;;;;;;;1.85;1.73;;;;;;;-1.71;100.00;61821.91;5097689;28;20197;-80
2024/01/17 01:34:21;;;;;;;2.33;1.90;;;;;;;-1.74;100.00;61821.84;5105162;28;20211;-77
2024/01/17 01:36:48;;;;;;;2.60;2.03;;;;;;;-1.82;100.00;61813.16;5106093;28;20318;-78
2024/01/17 01:39:15;;;;;;;3.00;2.80;;;;;;;-1.82;100.00;61813.16;5105877;28;20287;-77
2024/01/17 01:41:42;;;;;;;2.70;2.30;;;;;;;-1.74;100.00;61819.34;5104221;28;20378;-76
2024/01/17 01:44:09;;;;;;;6.68;5.00;;;;;;;-1.73;100.00;61822.38;5105507;28;20504;-76
2024/01/17 01:46:38;;;;;;;12.02;7.50;;;;;;;-1.62;100.00;61831.63;5105937;28;20204;-78
2024/01/17 01:49:05;;;;;;;7.75;5.82;;;;;;;-1.64;100.00;61827.09;5108295;28;20200;-78
2024/01/17 01:51:32;;;;;;;5.75;4.45;;;;;;;-1.58;100.00;61835.72;5107062;28;20430;-77
2024/01/17 01:54:00;;;;;;;7.50;5.13;;;;;;;-1.48;100.00;61847.94;5109474;28;20219;-78
2024/01/17 01:56:30;;;;;;;9.88;5.70;;;;;;;-1.40;100.00;61856.63;5100581;28;20242;-76
2024/01/17 01:58:57;;;;;;;5.50;4.57;;;;;;;-1.37;100.00;61856.69;5104510;28;20531;-77
2024/01/17 02:01:24;;;;;;;6.25;4.32;;;;;;;-1.28;100.00;61871.41;5104822;28;20204;-77
2024/01/17 02:03:52;;;;;;;6.57;4.80;;;;;;;-1.30;100.00;61868.84;5102535;28;20214;-77
2024/01/17 02:06:19;;;;;;;4.75;3.92;;;;;;;-1.33;100.00;61863.78;5104710;28;20371;-77
2024/01/17 02:08:46;;;;;;;3.35;3.05;;;;;;;-1.29;100.00;61867.91;5104509;28;20226;-77
2024/01/17 02:11:13;;;;;;;4.10;2.42;;;;;;;-1.42;100.00;61849.09;5105216;28;20581;-77
2024/01/17 02:13:40;;;;;;;3.17;2.85;;;;;;;-1.46;100.00;61849.97;5102286;28;20191;-78
2024/01/17 02:16:07;;;;;;;2.45;2.20;;;;;;;-1.50;100.00;61845.91;5107483;28;20230;-76
2024/01/17 02:18:34;;;;;;;4.05;3.67;;;;;;;-1.63;100.00;61830.63;5108861;28;20197;-76
2024/01/17 02:21:02;;;;;;;3.97;3.67;;;;;;;-1.64;100.00;61834.56;5105601;28;20265;-75
2024/01/17 02:23:29;;;;;;;3.10;2.90;;;;;;;-1.74;100.00;61824.34;5106465;28;20204;-77
2024/01/17 02:25:59;;;;;;;4.05;3.13;;;;;;;-1.77;100.00;61821.28;5104356;28;20638;-76
2024/01/17 02:28:27;;;;;;;5.63;4.20;;;;;;;-1.93;100.00;61799.41;5104671;28;20200;-76
2024/01/17 02:30:54;;;;;;;10.93;6.85;;;;;;;-1.91;100.00;61801.97;5108113;28;20223;-77
2024/01/17 02:33:21;;;;;;;7.95;6.00;;;;;;;-1.96;100.00;61801.84;5106907;28;20200;-77
2024/01/17 02:35:49;;;;;;;8.65;6.43;;;;;;;-1.88;100.00;61804.53;5102335;28;20224;-77
2024/01/17 02:38:16;;;;;;;5.68;5.07;;;;;;;-1.79;100.00;61816.72;5104823;28;20254;-78
2024/01/17 02:40:43;;;;;;;4.72;4.22;;;;;;;-1.80;100.00;61817.69;5103443;28;20246;-77
2024/01/17 02:43:11;;;;;;;6.82;4.68;;;;;;;-1.74;100.00;61818.84;5107122;28;20265;-77
2024/01/17 02:45:38;;;;;;;3.92;3.45;;;;;;;-1.64;100.00;61829.09;5108623;28;20220;-77
2024/01/17 02:48:05;;;;;;;7.07;5.93;;;;;;;-1.51;100.00;61847.88;5108592;28;20250;-77
2024/01/17 02:50:32;;;;;;;4.50;4.10;;;;;;;-1.42;100.00;61852.09;5094724;28;20236;-77
2024/01/17 02:52:59;;;;;;;5.22;4.13;;;;;;;-1.36;100.00;61860.72;5108298;28;20283;-76
2024/01/17 02:55:26;;;;;;;7.32;5.22;;;;;;;-1.30;100.00;61869.38;5108752;28;20231;-76
2024/01/17 02:57:54;;;;;;;7.55;5.68;;;;;;;-1.21;100.00;61873.06;5100572;28;20229;-77
2024/01/17 03:00:22;;;;;;;6.10;5.47;;;;;;;-1.10;100.00;61889.31;5094324;28;20216;-76
2024/01/17 03:02:49;;;;;;;6.03;5.32;;;;;;;-1.20;100.00;61874.63;5107807;28;20223;-77
2024/01/17 03:05:16;;;;;;;9.98;5.13;;;;;;;-1.05;100.00;61893.94;5113063;28;20223;-77
2024/01/17 03:07:43;;;;;;;7.38;5.15;;;;;;;-0.92;100.00;61912.75;5111098;28;20206;-76
2024/01/17 03:10:12;;;;;;;9.13;5.88;;;;;;;-0.85;100.00;61909.41;5106635;28;20275;-76
2024/01/17 03:12:40;;;;;;;7.22;5.15;;;;;;;-0.92;100.00;61905.25;5105551;28;20255;-76
2024/01/17 03:15:10;;;;;;;5.70;4.88;;;;;;;-0.94;100.00;61902.69;5107535;28;20215;-76
2024/01/17 03:17:38;;;;;;;6.55;5.05;;;;;;;-0.82;100.00;61912.47;5098339;28;20211;-77
2024/01/17 03:20:10;;;;;;;8.30;5.45;;;;;;;-0.77;100.00;61923.13;5105108;28;20559;-76
2024/01/17 03:22:38;;;;;;;7.68;5.68;;;;;;;-0.86;100.00;61911.38;5106353;28;20218;-77
2024/01/17 03:25:06;;;;;;;6.82;5.65;;;;;;;-0.75;100.00;61920.16;5108233;28;20228;-76
2024/01/17 03:27:33;;;;;;;10.85;6.22;;;;;;;-0.63;100.00;61932.44;5104802;28;20200;-77
2024/01/17 03:30:00;;;;;;;7.78;5.85;;;;;;;-0.71;100.00;61926.25;5108465;28;20700;-76
2024/01/17 03:32:27;;;;;;;8.25;5.35;;;;;;;-0.62;100.00;61935.47;5112708;28;20267;-77
2024/01/17 03:34:55;;;;;;;8.52;5.82;;;;;;;-0.66;100.00;61929.38;5116591;28;20216;-77
2024/01/17 03:37:22;;;;;;;7.53;5.63;;;;;;;-0.65;100.00;61934.88;5108371;28;20227;-75
2024/01/17 03:39:49;;;;;;;8.35;5.95;;;;;;;-0.63;100.00;61937.44;5107645;28;20223;-77
2024/01/17 03:42:16;;;;;;;9.25;5.90;;;;;;;-0.59;100.00;61936.56;5107306;28;20325;-75
2024/01/17 03:44:44;;;;;;;8.02;6.53;;;;;;;-0.58;100.00;61942.06;5106874;28;20224;-76
2024/01/17 03:47:11;;;;;;;7.28;5.70;;;;;;;-0.55;100.00;61943.13;5106057;28;20200;-78
2024/01/17 03:49:38;;;;;;;6.88;6.00;;;;;;;-0.50;100.00;61948.25;5107688;28;20224;-77
2024/01/17 03:52:07;;;;;;;7.45;5.90;;;;;;;-0.51;100.00;61946.72;5107817;28;20200;-77
2024/01/17 03:54:36;;;;;;;8.50;5.85;;;;;;;-0.57;100.00;61940.59;5104048;28;20680;-77
2024/01/17 03:57:04;;;;;;;9.27;6.95;;;;;;;-0.73;100.00;61924.19;5107256;28;20605;-76
2024/01/17 03:59:31;;;;;;;9.75;7.07;;;;;;;-0.85;100.00;61911.91;5108449;28;20224;-77
2024/01/17 04:01:58;;;;;;;10.85;8.10;;;;;;;-0.95;100.00;61904.16;5106938;28;20307;-76
2024/01/17 04:04:25;;;;;;;13.02;8.50;;;;;;;-1.20;100.00;61876.59;5108301;28;20230;-76
2024/01/17 04:06:53;;;;;;;13.85;9.05;;;;;;;-1.41;100.00;61855.63;5111217;28;20231;-76
2024/01/17 04:09:21;;;;;;;13.52;9.45;;;;;;;-1.47;100.00;61841.97;5114889;28;20250;-76
2024/01/17 04:11:48;;;;;;;14.02;9.60;;;;;;;-1.53;100.00;61843.34;5102187;28;20204;-76
2024/01/17 04:14:15;;;;;;;18.55;10.57;;;;;;;-1.55;100.00;61841.28;5101624;28;20269;-77
2024/01/17 04:16:42;;;;;;;19.33;11.70;;;;;;;-1.52;100.00;61843.84;5103517;28;20489;-77
2024/01/17 04:19:10;;;;;;;21.88;11.52;;;;;;;-1.55;100.00;61838.28;5105313;28;20204;-77
2024/01/17 04:21:37;;;;;;;20.88;12.00;;;;;;;-1.61;100.00;61834.63;5103379;28;20200;-77
2024/01/17 04:24:04;;;;;;;20.48;10.70;;;;;;;-1.67;100.00;61828.50;5103003;28;20535;-76
2024/01/17 04:26:33;;;;;;;14.10;9.65;;;;;;;-1.85;100.00;61810.59;5107573;28;20218;-76
2024/01/17 04:28:59;;;;;;;13.77;9.32;;;;;;;-1.85;100.00;61807.59;5105009;28;20270;-76
2024/01/17 04:31:25;;;;;;;16.02;10.32;;;;;;;-1.96;100.00;61794.38;5100278;28;20196;-77
2024/01/17 04:33:52;;;;;;;19.08;11.65;;;;;;;-1.90;100.00;61807.47;5097299;28;20451;-77
2024/01/17 04:36:20;;;;;;;18.42;11.55;;;;;;;-1.86;100.00;61814.56;5107866;28;20238;-76
2024/01/17 04:38:47;;;;;;;16.17;11.05;;;;;;;-1.88;100.00;61807.53;5096796;28;20243;-77
2024/01/17 04:41:15;;;;;;;17.42;11.05;;;;;;;-2.02;100.00;61790.22;5110552;28;20228;-79
2024/01/17 04:43:45;;;;;;;19.02;11.10;;;;;;;-2.01;100.00;61793.72;5107863;28;20219;-77
2024/01/17 04:46:13;;;;;;;19.60;12.00;;;;;;;-2.01;100.00;61799.22;5106376;28;20218;-78
2024/01/17 04:48:40;;;;;;;15.77;11.48;;;;;;;-1.95;100.00;61802.34;5104926;28;20275;-78
2024/01/17 04:51:07;;;;;;;15.40;11.57;;;;;;;-1.94;100.00;61806.38;5102257;28;20222;-76
2024/01/17 04:53:34;;;;;;;22.15;13.27;;;;;;;-1.97;100.00;61800.31;5106427;28;20204;-77
2024/01/17 04:56:02;;;;;;;19.63;12.40;;;;;;;-1.98;100.00;61794.81;5106020;28;20266;-78
2024/01/17 04:58:29;;;;;;;20.70;13.13;;;;;;;-1.99;100.00;61796.28;5105009;28;20255;-77
2024/01/17 05:00:57;;;;;;;26.75;14.55;;;;;;;-1.99;100.00;61800.75;5104253;28;20232;-78
2024/01/17 05:03:24;;;;;;;27.27;15.38;;;;;;;-2.10;100.00;61784.50;5106054;28;20231;-76
2024/01/17 05:05:52;;;;;;;20.95;12.02;;;;;;;-2.20;100.00;61774.81;5109182;28;20593;-76
2024/01/17 05:08:19;;;;;;;19.00;12.95;;;;;;;-2.24;100.00;61763.22;5105341;28;20212;-78
2024/01/17 05:10:46;;;;;;;21.10;14.15;;;;;;;-2.14;100.00;61783.44;5105307;28;20247;-78
2024/01/17 05:13:13;;;;;;;20.00;13.48;;;;;;;-2.09;100.00;61785.53;5105474;28;20214;-77
2024/01/17 05:15:41;;;;;;;23.95;14.73;;;;;;;-2.02;100.00;61790.22;5106853;28;20455;-77
2024/01/17 05:18:09;;;;;;;22.23;15.65;;;;;;;-2.02;100.00;61793.19;5103830;28;20441;-77
2024/01/17 05:20:37;;;;;;;28.40;15.95;;;;;;;-1.99;100.00;61793.28;5102216;28;20232;-78
2024/01/17 05:23:04;;;;;;;19.83;12.40;;;;;;;-2.11;100.00;61783.50;5104791;28;20206;-78
2024/01/17 05:25:31;;;;;;;22.63;13.82;;;;;;;-2.10;100.00;61779.53;5106291;28;20220;-77
2024/01/17 05:27:58;;;;;;;20.48;13.63;;;;;;;-2.02;100.00;61795.19;5103579;28;20203;-77
2024/01/17 05:30:25;;;;;;;19.23;12.43;;;;;;;-1.84;100.00;61808.59;5105650;28;20243;-77
2024/01/17 05:32:53;;;;;;;22.10;12.98;;;;;;;-1.83;100.00;61815.13;5105433;28;20484;-77
2024/01/17 05:35:22;;;;;;;23.35;13.65;;;;;;;-1.69;100.00;61824.47;5103798;28;20238;-78
2024/01/17 05:37:50;;;;;;;18.65;12.90;;;;;;;-1.71;100.00;61827.41;5102008;28;20274;-77
2024/01/17 05:40:17;;;;;;;19.80;13.98;;;;;;;-1.78;100.00;61822.25;5106987;28;20424;-78
2024/01/17 05:42:45;;;;;;;22.90;13.95;;;;;;;-1.73;100.00;61827.34;5107973;28;20199;-77
2024/01/17 05:45:12;;;;;;;26.17;16.08;;;;;;;-1.65;100.00;61823.06;5101331;28;20251;-77
2024/01/17 05:47:39;;;;;;;24.85;15.50;;;;;;;-1.55;100.00;61833.28;5106356;28;20200;-77
2024/01/17 05:50:08;;;;;;;28.27;17.50;;;;;;;-1.40;100.00;61858.63;5107804;28;20536;-77
2024/01/17 05:52:38;;;;;;;26.52;16.92;;;;;;;-1.40;100.00;61853.63;5104574;28;20263;-78
2024/01/17 05:55:06;;;;;;;29.55;18.90;;;;;;;-1.35;100.00;61864.25;5108600;28;20277;-78
2024/01/17 05:57:33;;;;;;;31.20;17.80;;;;;;;-1.26;100.00;61872.97;5107944;28;20237;-79
2024/01/17 06:00:03;;;;;;;29.05;18.17;;;;;;;-1.37;100.00;61861.69;5106292;28;20207;-79
2024/01/17 06:02:30;;;;;;;26.63;17.70;;;;;;;-1.28;100.00;61868.41;5106398;28;20204;-79
2024/01/17 06:04:57;;;;;;;30.67;18.92;;;;;;;-1.09;100.00;61887.34;5107701;28;20231;-78
2024/01/17 06:07:24;;;;;;;31.33;18.75;;;;;;;-0.93;100.00;61904.22;5108687;28;20216;-80
2024/01/17 06:09:53;;;;;;;26.38;16.45;;;;;;;-0.78;100.00;61922.09;5107440;28;20293;-79
2024/01/17 06:12:19;;;;;;;32.03;16.70;;;;;;;-0.71;100.00;61928.75;5107571;28;20200;-79
2024/01/17 06:14:47;;;;;;;26.25;16.25;;;;;;;-0.64;100.00;61933.91;5110637;28;20223;-78
2024/01/17 06:17:14;;;;;;;21.17;14.68;;;;;;;-0.68;100.00;61932.34;5114207;28;20224;-78
2024/01/17 06:19:41;;;;;;;21.42;13.45;;;;;;;-0.65;100.00;61929.88;5107646;28;20238;-78
2024/01/17 06:22:09;;;;;;;23.50;13.65;;;;;;;-0.60;100.00;61935.00;5106286;28;20229;-80
2024/01/17 06:24:36;;;;;;;22.35;13.63;;;;;;;-0.58;100.00;61940.06;5106453;28;20332;-78
2024/01/17 06:27:05;;;;;;;20.65;12.40;;;;;;;-0.60;100.00;61937.50;5106545;28;20267;-79
2024/01/17 06:29:34;;;;;;;21.23;14.35;;;;;;;-0.61;100.00;61936.47;5107298;28;20231;-80
2024/01/17 06:32:01;;;;;;;27.67;16.30;;;;;;;-0.57;100.00;61940.59;5106049;28;20196;-79
2024/01/17 06:34:27;;;;;;;25.35;16.90;;;;;;;-0.53;100.00;61947.16;5107993;28;20216;-80
2024/01/17 06:36:54;;;;;;;24.52;15.80;;;;;;;-0.57;100.00;61945.59;5108461;28;20291;-79
2024/01/17 06:39:21;;;;;;;30.35;17.65;;;;;;;-0.63;100.00;61937.44;5108363;28;20288;-79
2024/01/17 06:41:48;;;;;;;33.92;19.27;;;;;;;-0.80;100.00;61919.53;5108649;28;20211;-79
2024/01/17 06:44:16;;;;;;;37.40;22.52;;;;;;;-0.94;100.00;61905.19;5107703;28;20230;-79
2024/01/17 06:46:44;;;;;;;39.85;22.35;;;;;;;-0.86;100.00;61910.91;5109896;28;20204;-78
2024/01/17 06:49:11;;;;;;;37.33;23.77;;;;;;;-0.85;100.00;61914.94;5110903;28;20208;-79
2024/01/17 06:51:38;;;;;;;37.95;22.92;;;;;;;-0.90;100.00;61901.78;5106747;28;20200;-78
2024/01/17 06:54:05;;;;;;;40.10;22.10;;;;;;;-0.90;100.00;61909.81;5106215;28;20200;-77
2024/01/17 06:56:34;;;;;;;42.55;21.08;;;;;;;-0.92;100.00;61907.75;5096413;28;20204;-78
2024/01/17 06:59:02;;;;;;;53.65;26.65;;;;;;;-0.85;100.00;61917.44;5102380;28;20258;-79
2024/01/17 07:01:30;;;;;;;44.00;25.70;;;;;;;-0.33;100.00;61962.66;5102905;28;20196;-77
2024/01/17 07:03:57;;;;;;;45.65;25.17;;;;;;;-0.12;100.00;61986.66;5103364;28;20197;-78
2024/01/17 07:06:24;;;;;;;38.08;23.25;;;;;;;-0.39;100.00;61964.00;5089964;28;20486;-79
2024/01/17 07:08:51;;;;;;;33.47;20.42;;;;;;;-0.65;100.00;61930.41;5099788;28;20480;-79
2024/01/17 07:11:19;;;;;;;33.45;21.27;;;;;;;-0.65;100.00;61932.91;5109310;28;20210;-79
2024/01/17 07:13:46;;;;;;;32.58;19.73;;;;;;;-0.71;100.00;61923.75;5109672;28;20199;-78
2024/01/17 07:16:15;;;;;;;33.92;20.98;;;;;;;-0.54;100.00;61944.16;5109651;28;20258;-79
2024/01/17 07:18:43;;;;;;;37.47;23.00;;;;;;;-0.33;100.00;61965.66;5112232;28;20258;-79
2024/01/17 07:21:11;;;;;;;36.03;21.65;;;;;;;0.07;100.00;62006.13;5097643;28;20226;-78
2024/01/17 07:23:38;;;;;;;40.92;23.10;;;;;;;0.50;100.00;62050.22;5111027;28;20200;-79
2024/01/17 07:26:06;;;;;;;37.67;22.98;;;;;;;1.00;100.00;62101.00;5110180;28;20224;-79
2024/01/17 07:28:33;;;;;;;39.45;25.20;;;;;;;0.83;100.00;62084.06;5110362;28;20211;-80
2024/01/17 07:31:00;;;;;;;41.70;25.58;;;;;;;1.05;100.00;62104.09;5111085;28;20223;-80
2024/01/17 07:33:28;;;;;;;45.20;26.40;;;;;;;1.37;100.00;62136.44;5110991;28;20192;-79
2024/01/17 07:35:56;;;;;;;39.65;24.85;;;;;;;0.91;100.00;62091.75;5111886;28;20219;-79
2024/01/17 07:38:24;;;;;;;44.42;24.98;;;;;;;0.31;100.00;62032.75;5110537;28;20236;-79
2024/01/17 07:40:51;;;;;;;42.03;25.73;;;;;;;0.37;100.00;62041.38;5110693;28;20220;-78
2024/01/17 07:43:18;;;;;;;37.42;23.50;;;;;;;0.61;100.00;62066.00;5114599;28;20216;-80
2024/01/17 07:45:45;;;;;;;37.78;22.23;;;;;;;0.49;100.00;62049.19;5110987;28;20231;-79
2024/01/17 07:48:12;;;;;;;40.15;21.58;;;;;;;0.62;100.00;62065.03;5110520;28;20204;-80
2024/01/17 07:50:40;;;;;;;40.63;21.88;;;;;;;0.48;100.00;62045.16;5098070;28;20228;-79
2024/01/17 07:53:11;;;;;;;36.72;22.60;;;;;;;0.84;100.00;62084.56;5112949;28;20196;-77
2024/01/17 07:55:38;;;;;;;38.78;23.50;;;;;;;0.58;100.00;62063.44;5109331;28;20239;-79
2024/01/17 07:58:05;;;;;;;38.97;23.85;;;;;;;0.79;100.00;62079.44;5110333;28;20234;-80
2024/01/17 08:00:32;;;;;;;40.42;23.25;;;;;;;1.18;100.00;62117.47;5096940;28;20273;-80
2024/01/17 08:02:59;;;;;;;38.30;22.40;;;;;;;1.44;100.00;62151.13;5109891;28;20461;-79
2024/01/17 08:05:27;;;;;;;33.83;20.05;;;;;;;1.45;100.00;62146.63;5113003;28;20192;-79
2024/01/17 08:07:58;;;;;;;34.08;21.15;;;;;;;1.46;100.00;62145.16;5110433;28;20227;-79
2024/01/17 08:10:27;;;;;;;34.10;21.27;;;;;;;1.72;100.00;62176.84;5112431;28;20540;-78
2024/01/17 08:12:58;;;;;;;34.65;22.52;;;;;;;1.47;100.00;62148.69;5110216;28;20204;-77
2024/01/17 08:15:25;;;;;;;33.00;20.33;;;;;;;0.98;100.00;62101.94;5091361;28;20220;-80
2024/01/17 08:17:51;;;;;;;34.25;21.40;;;;;;;0.68;100.00;62068.16;5105737;28;20200;-78
2024/01/17 08:20:18;;;;;;;30.60;20.83;;;;;;;0.51;100.00;62050.72;5099868;28;20224;-76
2024/01/17 08:22:45;;;;;;;34.85;21.30;;;;;;;0.80;100.00;62080.97;5110095;28;20203;-78
2024/01/17 08:25:12;;;;;;;38.53;22.13;;;;;;;1.05;100.00;62108.63;5111204;28;20216;-79
2024/01/17 08:27:40;;;;;;;33.88;20.20;;;;;;;1.02;100.00;62111.06;5108976;28;20234;-78
2024/01/17 08:30:10;;;;;;;32.42;21.35;;;;;;;0.89;100.00;62087.72;5111402;28;20223;-78
2024/01/17 08:32:37;;;;;;;33.35;18.70;;;;;;;0.75;100.00;62070.84;5113680;28;20223;-79
2024/01/17 08:35:05;;;;;;;40.17;19.70;;;;;;;0.92;100.00;62093.28;5110153;28;20220;-76
2024/01/17 08:37:34;;;;;;;32.00;20.77;;;;;;;1.33;100.00;62134.81;5111577;28;20203;-79
2024/01/17 08:40:01;;;;;;;32.10;20.85;;;;;;;1.55;100.00;62154.41;5110407;28;20235;-79
2024/01/17 08:42:28;;;;;;;31.40;19.95;;;;;;;1.71;100.00;62171.31;5111432;28;20676;-77
2024/01/17 08:44:56;;;;;;;34.58;20.33;;;;;;;1.82;100.00;62187.13;5108653;28;20253;-78
2024/01/17 08:47:23;;;;;;;35.95;21.13;;;;;;;2.00;100.00;62206.09;5108144;28;20268;-78
2024/01/17 08:49:51;;;;;;;31.13;20.45;;;;;;;2.13;100.00;62213.94;5110256;28;20231;-77
2024/01/17 08:52:18;;;;;;;34.63;20.88;;;;;;;2.10;100.00;62215.88;5109077;28;20262;-77
2024/01/17 08:54:45;;;;;;;32.63;19.02;;;;;;;1.69;100.00;62171.78;5114809;28;20226;-76
2024/01/17 08:57:13;;;;;;;28.52;19.58;;;;;;;1.79;100.00;62179.53;5110231;28;20196;-76
2024/01/17 08:59:41;;;;;;;35.13;20.40;;;;;;;1.96;100.00;62199.50;5111658;28;20232;-78
2024/01/17 09:02:10;;;;;;;32.25;20.17;;;;;;;1.98;100.00;62206.06;5115285;28;20206;-77
2024/01/17 09:04:37;;;;;;;35.83;21.80;;;;;;;2.03;100.00;62206.16;5106754;28;20224;-77
2024/01/17 09:07:04;;;;;;;38.22;21.67;;;;;;;1.87;100.00;62197.25;5106425;28;20204;-77
2024/01/17 09:09:31;;;;;;;35.95;21.45;;;;;;;1.73;100.00;62178.41;5107874;28;20220;-77
2024/01/17 09:11:58;;;;;;;37.90;23.00;;;;;;;1.62;100.00;62166.59;5108025;28;20200;-78
2024/01/17 09:14:24;;;;;;;36.47;21.67;;;;;;;1.42;100.00;62146.56;5107039;28;20433;-76
2024/01/17 09:16:52;;;;;;;41.85;23.58;;;;;;;1.68;100.00;62175.25;5107090;28;20522;-76
2024/01/17 09:19:21;;;;;;;39.92;24.92;;;;;;;2.03;100.00;62204.19;5112488;28;20266;-76
2024/01/17 09:21:48;;;;;;;43.38;24.27;;;;;;;2.29;100.00;62232.88;5106767;28;20203;-76
2024/01/17 09:24:15;;;;;;;37.47;24.30;;;;;;;2.52;100.00;62256.47;5109116;28;20228;-76
2024/01/17 09:26:49;;;;;;;38.42;23.88;;;;;;;2.56;100.00;62260.59;5114630;28;20203;-79
2024/01/17 09:29:16;;;;;;;38.45;22.13;;;;;;;2.68;100.00;62272.94;5110814;28;20246;-77
2024/01/17 09:31:43;;;;;;;38.13;25.30;;;;;;;2.93;100.00;62298.09;5105806;28;20215;-76
2024/01/17 09:34:10;;;;;;;35.05;22.60;;;;;;;3.03;100.00;62308.38;5106235;28;20207;-76
2024/01/17 09:36:38;;;;;;;33.65;20.73;;;;;;;3.36;100.00;62344.81;5106739;28;20203;-77
2024/01/17 09:39:05;;;;;;;32.83;20.58;;;;;;;3.67;100.00;62376.19;5106803;28;20250;-77
2024/01/17 09:41:32;;;;;;;36.00;22.58;;;;;;;3.24;100.00;62327.44;5106740;28;20237;-76
2024/01/17 09:43:59;;;;;;;36.83;23.65;;;;;;;2.59;100.00;62263.19;5111512;28;20476;-75
2024/01/17 09:46:26;;;;;;;36.72;23.55;;;;;;;2.76;100.00;62283.16;5107313;28;20243;-75
2024/01/17 09:48:53;;;;;;;43.33;23.63;;;;;;;3.03;100.00;62308.91;5109417;28;20211;-77
2024/01/17 09:51:21;;;;;;;40.40;23.98;;;;;;;3.34;100.00;62343.28;5105556;28;20200;-76
2024/01/17 09:53:49;;;;;;;38.67;24.90;;;;;;;2.80;100.00;62287.78;5105872;28;20207;-76
2024/01/17 09:56:16;;;;;;;42.53;24.55;;;;;;;2.61;100.00;62265.72;5092777;28;20235;-76
2024/01/17 09:58:45;;;;;;;35.15;23.02;;;;;;;2.86;100.00;62288.91;5104327;28;20236;-76
2024/01/17 10:01:15;;;;;;;49.97;25.27;;;;;;;3.00;100.00;62305.31;5108890;28;20249;-77
2024/01/17 10:03:44;;;;;;;38.28;24.27;;;;;;;3.17;100.00;62325.28;5109301;28;20234;-79
2024/01/17 10:06:11;;;;;;;37.72;22.40;;;;;;;3.23;100.00;62329.44;5107872;28;20215;-76
2024/01/17 10:08:38;;;;;;;32.50;22.95;;;;;;;3.24;100.00;62333.00;5106128;28;20200;-77
2024/01/17 10:11:07;;;;;;;39.50;22.63;;;;;;;3.39;100.00;62345.38;5111123;28;20540;-76
2024/01/17 10:13:34;;;;;;;37.70;22.95;;;;;;;3.59;100.00;62360.91;5099570;28;20201;-77
2024/01/17 10:16:08;;;;;;;41.67;24.35;;;;;;;3.66;99.90;62372.63;5110307;28;20215;-77
2024/01/17 10:18:35;;;;;;;39.30;23.17;;;;;;;3.37;100.00;62343.31;5105896;28;20223;-78
2024/01/17 10:21:03;;;;;;;36.00;23.13;;;;;;;3.38;100.00;62346.88;5108648;28;20231;-76
2024/01/17 10:23:32;;;;;;;36.80;22.90;;;;;;;3.53;100.00;62357.78;5108356;28;20188;-77
2024/01/17 10:25:59;;;;;;;37.10;23.05;;;;;;;3.79;100.00;62386.53;5104900;28;20219;-76
2024/01/17 10:28:27;;;;;;;40.67;25.25;;;;;;;3.42;99.05;62351.50;5106525;28;20199;-76
2024/01/17 10:30:54;;;;;;;38.22;24.65;;;;;;;3.45;99.57;62347.03;5104117;28;20220;-76
2024/01/17 10:33:21;;;;;;;42.88;25.63;;;;;;;3.33;100.00;62342.25;5103566;28;20683;-76
2024/01/17 10:35:50;;;;;;;39.75;25.38;;;;;;;3.60;100.00;62368.97;5104914;28;20216;-76
2024/01/17 10:38:17;;;;;;;41.78;24.70;;;;;;;3.56;99.95;62365.38;5103944;28;20203;-77
2024/01/17 10:40:44;;;;;;;39.17;24.77;;;;;;;3.73;97.86;62377.31;5106372;28;20246;-75
2024/01/17 10:43:12;;;;;;;47.15;25.25;;;;;;;3.93;97.12;62400.41;5109546;28;20230;-75
2024/01/17 10:45:42;;;;;;;38.15;24.63;;;;;;;4.11;95.12;62416.38;5106683;28;20283;-76
2024/01/17 10:48:09;;;;;;;41.40;22.17;;;;;;;4.26;89.99;62439.41;5106574;28;20229;-77
2024/01/17 10:50:36;;;;;;;29.85;19.42;;;;;;;4.61;89.84;62470.38;5104716;28;20228;-77
2024/01/17 10:53:05;;;;;;;28.00;17.00;;;;;;;4.87;84.44;62499.66;5108271;28;20212;-76
2024/01/17 10:55:36;;;;;;;26.50;17.63;;;;;;;5.11;82.11;62523.88;5105720;28;20223;-77
2024/01/17 10:58:07;;;;;;;39.88;22.75;;;;;;;5.23;84.13;62534.19;5104156;28;20188;-76
2024/01/17 11:00:35;;;;;;;36.35;20.98;;;;;;;5.19;83.54;62527.56;5109276;28;20243;-76
2024/01/17 11:03:08;;;;;;;34.28;22.02;;;;;;;5.21;84.95;62531.63;5102513;28;20204;-76
2024/01/17 11:05:37;;;;;;;29.77;21.92;;;;;;;5.55;82.62;62569.19;5108478;28;20566;-76
2024/01/17 11:08:05;;;;;;;52.88;29.98;;;;;;;5.80;80.62;62592.41;5108136;28;20488;-76
2024/01/17 11:10:32;;;;;;;49.42;28.30;;;;;;;6.10;79.61;62622.81;5107498;28;20694;-75
2024/01/17 11:12:59;;;;;;;43.85;25.92;;;;;;;6.31;75.76;62645.00;5106843;28;20204;-76
2024/01/17 11:15:26;;;;;;;35.22;21.70;;;;;;;6.41;74.00;62655.31;5107865;28;20279;-77
2024/01/17 11:17:54;;;;;;;32.50;20.60;;;;;;;6.73;73.02;62690.31;5108097;28;20246;-76